createdAt,value
2022-11-26T00:02:19.032Z,98562.25
2022-11-26T00:04:47.588Z,98562.25
2022-11-26T00:07:22.129Z,98557.03
2022-11-26T00:09:51.131Z,98563.38
2022-11-26T00:12:21.695Z,98565.31
2022-11-26T00:14:51.911Z,98574.69
2022-11-26T00:17:21.116Z,98570.00
2022-11-26T00:19:49.935Z,98581.03
2022-11-26T00:22:25.133Z,98580.22
2022-11-26T00:24:54.655Z,98574.69
2022-11-26T00:27:26.803Z,98565.88
2022-11-26T00:29:56.742Z,98565.88
2022-11-26T00:32:27.028Z,98565.88
2022-11-26T00:34:55.500Z,98558.72
2022-11-26T00:37:27.297Z,98567.00
2022-11-26T00:39:56.548Z,98573.63
2022-11-26T00:42:25.087Z,98577.22
2022-11-26T00:44:53.539Z,98585.50
2022-11-26T00:47:23.413Z,98581.91
2022-11-26T00:49:51.874Z,98589.06
2022-11-26T00:52:27.973Z,98589.38
2022-11-26T00:54:56.455Z,98589.38
2022-11-26T00:57:25.149Z,98589.06
2022-11-26T00:59:53.597Z,98594.88
2022-11-26T01:02:23.414Z,98602.84
2022-11-26T01:04:51.859Z,98601.22
2022-11-26T01:07:20.479Z,98602.31
2022-11-26T01:09:49.302Z,98600.38
2022-11-26T01:12:17.780Z,98611.41
2022-11-26T01:14:46.267Z,98612.25
2022-11-26T01:17:14.773Z,98617.75
2022-11-26T01:19:44.579Z,98617.75
2022-11-26T01:22:21.414Z,98621.63
2022-11-26T01:24:50.276Z,98627.97
2022-11-26T01:27:21.235Z,98635.41
2022-11-26T01:29:49.749Z,98632.13
2022-11-26T01:32:18.156Z,98633.78
2022-11-26T01:34:47.918Z,98640.09
2022-11-26T01:37:16.281Z,98644.81
2022-11-26T01:39:44.668Z,98642.03
2022-11-26T01:42:26.817Z,98636.53
2022-11-26T01:44:55.428Z,98651.13
2022-11-26T01:47:25.783Z,98648.38
2022-11-26T01:50:31.612Z,98658.59
2022-11-26T01:53:05.189Z,98656.94
2022-11-26T01:55:38.404Z,98661.34
2022-11-26T01:58:10.238Z,98662.47
2022-11-26T02:00:38.832Z,98660.81
2022-11-26T02:03:10.903Z,98669.91
2022-11-26T02:05:44.018Z,98677.34
2022-11-26T02:08:14.514Z,98674.31
2022-11-26T02:10:42.947Z,98679.00
2022-11-26T02:13:11.571Z,98671.03
2022-11-26T02:15:50.166Z,98683.69
2022-11-26T02:18:19.388Z,98679.00
2022-11-26T02:20:57.373Z,98682.88
2022-11-26T02:23:57.196Z,98677.34
2022-11-26T02:26:48.751Z,98675.75
2022-11-26T02:29:26.741Z,98682.06
2022-11-26T02:32:01.775Z,98693.09
2022-11-26T02:34:38.002Z,98691.16
2022-11-26T02:37:10.604Z,98699.41
2022-11-26T02:39:39.038Z,98703.31
2022-11-26T02:42:25.263Z,98706.09
2022-11-26T02:44:56.411Z,98700.56
2022-11-26T02:47:28.781Z,98708.00
2022-11-26T02:50:00.310Z,98711.59
2022-11-26T02:52:30.692Z,98719.88
2022-11-26T02:55:00.997Z,98710.78
2022-11-26T02:57:33.695Z,98719.03
2022-11-26T03:00:02.510Z,98722.91
2022-11-26T03:02:38.901Z,98722.38
2022-11-26T03:05:09.764Z,98733.13
2022-11-26T03:07:39.065Z,98733.13
2022-11-26T03:10:08.955Z,98738.63
2022-11-26T03:12:37.469Z,98732.00
2022-11-26T03:15:07.423Z,98744.16
2022-11-26T03:17:37.294Z,98740.56
2022-11-26T03:20:07.374Z,98739.47
2022-11-26T03:22:35.965Z,98747.72
2022-11-26T03:25:04.750Z,98749.66
2022-11-26T03:27:33.255Z,98753.53
2022-11-26T03:30:01.740Z,98750.50
2022-11-26T03:32:30.212Z,98749.66
2022-11-26T03:35:00.100Z,98752.41
2022-11-26T03:37:28.957Z,98760.69
2022-11-26T03:39:57.423Z,98754.34
2022-11-26T03:42:25.885Z,98755.19
2022-11-26T03:44:54.487Z,98756.28
2022-11-26T03:47:22.933Z,98760.69
2022-11-26T03:49:51.404Z,98760.69
2022-11-26T03:52:21.266Z,98765.38
2022-11-26T03:54:49.721Z,98768.97
2022-11-26T03:57:18.280Z,98770.06
2022-11-26T03:59:46.760Z,98770.06
2022-11-26T04:02:15.346Z,98770.06
2022-11-26T04:04:43.925Z,98780.28
2022-11-26T04:07:12.425Z,98777.53
2022-11-26T04:09:42.363Z,98775.59
2022-11-26T04:12:10.890Z,98783.88
2022-11-26T04:14:39.526Z,98791.31
2022-11-26T04:17:08.192Z,98794.06
2022-11-26T04:19:36.632Z,98790.50
2022-11-26T04:22:05.167Z,98784.97
2022-11-26T04:24:33.638Z,98792.13
2022-11-26T04:27:03.586Z,98785.78
2022-11-26T04:29:32.207Z,98788.56
2022-11-26T04:32:00.752Z,98791.31
2022-11-26T04:34:29.239Z,98799.59
2022-11-26T04:36:57.899Z,98796.00
2022-11-26T04:39:26.343Z,98796.81
2022-11-26T04:41:54.750Z,98790.50
2022-11-26T04:44:24.755Z,98789.38
2022-11-26T04:46:53.195Z,98792.97
2022-11-26T04:49:21.611Z,98797.66
2022-11-26T04:51:50.007Z,98789.38
2022-11-26T04:54:18.493Z,98792.13
2022-11-26T04:56:47.493Z,98785.78
2022-11-26T04:59:15.936Z,98786.63
2022-11-26T05:01:45.822Z,98792.13
2022-11-26T05:04:14.343Z,98794.91
2022-11-26T05:06:43.070Z,98803.16
2022-11-26T05:09:11.422Z,98808.69
2022-11-26T05:11:39.900Z,98816.94
2022-11-26T05:14:08.396Z,98815.00
2022-11-26T05:16:36.998Z,98818.88
2022-11-26T05:19:06.902Z,98825.22
2022-11-26T05:21:35.422Z,98823.56
2022-11-26T05:24:04.072Z,98818.06
2022-11-26T05:26:32.625Z,98823.56
2022-11-26T05:29:01.456Z,98818.06
2022-11-26T05:31:30.359Z,98817.53
2022-11-26T05:33:58.834Z,98813.66
2022-11-26T05:36:28.634Z,98825.50
2022-11-26T05:38:57.047Z,98816.41
2022-11-26T05:41:25.573Z,98824.41
2022-11-26T05:43:54.034Z,98820.81
2022-11-26T05:46:22.608Z,98820.81
2022-11-26T05:48:51.098Z,98832.66
2022-11-26T05:51:19.677Z,98831.84
2022-11-26T05:53:49.686Z,98826.34
2022-11-26T05:56:18.163Z,98830.75
2022-11-26T05:58:46.649Z,98829.09
2022-11-26T06:01:15.095Z,98830.75
2022-11-26T06:03:43.625Z,98836.25
2022-11-26T06:06:12.302Z,98836.25
2022-11-26T06:08:40.854Z,98841.75
2022-11-26T06:11:12.357Z,98842.88
2022-11-26T06:13:41.462Z,98850.03
2022-11-26T06:16:10.374Z,98847.28
2022-11-26T06:18:39.370Z,98852.78
2022-11-26T06:21:08.649Z,98844.81
2022-11-26T06:23:37.162Z,98848.41
2022-11-26T06:26:10.456Z,98858.31
2022-11-26T06:28:42.226Z,98859.13
2022-11-26T06:31:11.253Z,98866.88
2022-11-26T06:33:39.783Z,98866.59
2022-11-26T06:36:08.459Z,98866.88
2022-11-26T06:38:36.904Z,98873.22
2022-11-26T06:41:07.463Z,98873.22
2022-11-26T06:43:37.570Z,98878.72
2022-11-26T06:46:08.418Z,98877.91
2022-11-26T06:48:37.875Z,98878.72
2022-11-26T06:51:07.761Z,98886.47
2022-11-26T06:53:36.379Z,98892.50
2022-11-26T06:56:06.651Z,98886.16
2022-11-26T06:58:35.250Z,98890.88
2022-11-26T07:01:09.964Z,98888.09
2022-11-26T07:03:39.127Z,98893.34
2022-11-26T07:06:16.427Z,98884.25
2022-11-26T07:08:45.702Z,98911.81
2022-11-26T07:11:14.479Z,98899.13
2022-11-26T07:13:43.190Z,98905.19
2022-11-26T07:16:13.716Z,98913.75
2022-11-26T07:18:42.467Z,98914.56
2022-11-26T07:21:12.932Z,98917.31
2022-11-26T07:23:42.185Z,98918.44
2022-11-26T07:26:13.192Z,98920.09
2022-11-26T07:28:42.490Z,98918.97
2022-11-26T07:31:17.106Z,98924.78
2022-11-26T07:33:46.660Z,98937.44
2022-11-26T07:36:17.808Z,98936.63
2022-11-26T07:38:46.999Z,98938.56
2022-11-26T07:41:17.079Z,98945.19
2022-11-26T07:43:46.159Z,98955.94
2022-11-26T07:46:19.512Z,98955.09
2022-11-26T07:48:48.222Z,98958.69
2022-11-26T07:51:18.291Z,98962.25
2022-11-26T07:53:47.502Z,98972.47
2022-11-26T07:56:16.301Z,98974.13
2022-11-26T07:58:45.033Z,98978.81
2022-11-26T08:01:16.958Z,98977.16
2022-11-26T08:03:47.934Z,98983.50
2022-11-26T08:06:18.538Z,98984.31
2022-11-26T08:08:47.490Z,98996.19
2022-11-26T08:11:17.744Z,98993.41
2022-11-26T08:13:47.166Z,98992.31
2022-11-26T08:16:17.320Z,98991.22
2022-11-26T08:18:45.818Z,98997.53
2022-11-26T08:21:14.273Z,98995.63
2022-11-26T08:23:42.719Z,98997.22
2022-11-26T08:26:25.072Z,98994.47
2022-11-26T08:28:54.270Z,98998.88
2022-11-26T08:31:24.882Z,99000.53
2022-11-26T08:33:53.553Z,98995.00
2022-11-26T08:36:22.006Z,99003.28
2022-11-26T08:38:50.436Z,99004.94
2022-11-26T08:41:18.973Z,98996.66
2022-11-26T08:46:37.971Z,99006.59
2022-11-26T08:49:07.670Z,99007.69
2022-11-26T08:51:36.509Z,99013.75
2022-11-26T08:54:05.235Z,99007.13
2022-11-26T08:56:34.181Z,99009.88
2022-11-26T08:59:03.064Z,99005.47
2022-11-26T09:01:34.072Z,99007.13
2022-11-26T09:04:05.460Z,99012.66
2022-11-26T09:06:36.757Z,99024.78
2022-11-26T09:09:17.360Z,99023.69
2022-11-26T09:11:48.792Z,99025.31
2022-11-26T09:14:19.277Z,99029.19
2022-11-26T09:16:48.265Z,99020.09
2022-11-26T09:19:18.592Z,99020.91
2022-11-26T09:21:47.700Z,99029.19
2022-11-26T09:24:17.234Z,99030.00
2022-11-26T09:26:46.128Z,99036.34
2022-11-26T09:29:16.810Z,99038.56
2022-11-26T09:32:15.495Z,99038.56
2022-11-26T09:34:36.951Z,99042.97
2022-11-26T09:37:05.712Z,99031.94
2022-11-26T09:39:34.322Z,99040.22
2022-11-26T09:42:07.121Z,99031.94
2022-11-26T09:44:54.139Z,99040.22
2022-11-26T09:47:24.454Z,99041.03
2022-11-26T09:50:09.626Z,99035.53
2022-11-26T09:52:42.338Z,99035.53
2022-11-26T09:55:17.887Z,99036.34
2022-11-26T09:57:55.409Z,99033.59
2022-11-26T10:00:27.191Z,99029.19
2022-11-26T10:02:57.433Z,99028.09
2022-11-26T10:05:45.547Z,99026.44
2022-11-26T10:08:28.201Z,99019.81
2022-11-26T10:11:03.789Z,99021.47
2022-11-26T10:13:42.814Z,99015.94
2022-11-26T10:16:21.064Z,99013.72
2022-11-26T10:18:59.390Z,99012.06
2022-11-26T10:21:57.514Z,99019.25
2022-11-26T10:24:29.487Z,99019.25
2022-11-26T10:27:00.677Z,99012.63
2022-11-26T10:29:36.844Z,99014.25
2022-11-26T10:32:16.323Z,99007.94
2022-11-26T10:34:50.764Z,99009.03
2022-11-26T10:37:22.607Z,99004.34
2022-11-26T10:39:59.944Z,99000.47
2022-11-26T10:42:41.423Z,98997.72
2022-11-26T10:45:19.648Z,98997.72
2022-11-26T10:47:48.188Z,98994.97
2022-11-26T10:50:46.574Z,98998.81
2022-11-26T10:53:21.923Z,98987.78
2022-11-26T10:55:51.748Z,98998.00
2022-11-26T10:58:23.770Z,98987.78
2022-11-26T11:00:59.448Z,98985.03
2022-11-26T11:04:06.223Z,98986.97
2022-11-26T11:06:44.568Z,98986.16
2022-11-26T11:09:27.751Z,98992.47
2022-11-26T11:12:22.252Z,98985.59
2022-11-26T11:14:51.803Z,98986.16
2022-11-26T11:17:31.039Z,98979.81
2022-11-26T11:20:01.970Z,98975.13
2022-11-26T11:22:30.586Z,98971.53
2022-11-26T11:25:01.251Z,98976.50
2022-11-26T11:27:43.751Z,98982.56
2022-11-26T11:30:25.018Z,98976.22
2022-11-26T11:32:57.988Z,98973.47
2022-11-26T11:35:30.441Z,98967.94
2022-11-26T11:37:59.800Z,98971.81
2022-11-26T11:40:31.012Z,98967.13
2022-11-26T11:43:02.741Z,98968.22
2022-11-26T11:45:34.830Z,98970.16
2022-11-26T11:48:18.303Z,98950.84
2022-11-26T11:50:55.479Z,98964.66
2022-11-26T11:53:34.904Z,98963.81
2022-11-26T11:56:20.456Z,98977.34
2022-11-26T11:59:24.946Z,98972.94
2022-11-26T12:02:16.319Z,98970.16
2022-11-26T12:05:04.617Z,98974.03
2022-11-26T12:07:38.511Z,98963.81
2022-11-26T12:10:15.007Z,98960.25
2022-11-26T12:12:48.876Z,98951.97
2022-11-26T12:15:24.421Z,98951.97
2022-11-26T12:18:00.714Z,98947.03
2022-11-26T12:20:34.544Z,98958.59
2022-11-26T12:23:23.006Z,98950.31
2022-11-26T12:25:57.172Z,98955.84
2022-11-26T12:28:31.178Z,98955.84
2022-11-26T12:31:03.678Z,98959.41
2022-11-26T12:33:35.351Z,98965.75
2022-11-26T12:36:13.768Z,98964.94
2022-11-26T12:38:48.706Z,98962.19
2022-11-26T12:41:21.201Z,98962.19
2022-11-26T12:43:58.164Z,98968.53
2022-11-26T12:46:34.711Z,98968.81
2022-11-26T12:49:13.355Z,98965.75
2022-11-26T12:51:46.656Z,98965.75
2022-11-26T12:54:19.564Z,98968.53
2022-11-26T12:56:58.034Z,98963.00
2022-11-26T12:59:33.625Z,98957.50
2022-11-26T13:02:15.185Z,98958.31
2022-11-26T13:04:43.882Z,98961.91
2022-11-26T13:07:25.877Z,98948.09
2022-11-26T13:10:03.532Z,98950.84
2022-11-26T13:12:41.214Z,98944.22
2022-11-26T13:15:22.676Z,98941.47
2022-11-26T13:17:51.963Z,98944.22
2022-11-26T13:20:46.298Z,98933.22
2022-11-26T13:23:29.559Z,98928.50
2022-11-26T13:26:11.077Z,98921.06
2022-11-26T13:28:58.190Z,98924.66
2022-11-26T13:31:48.445Z,98927.41
2022-11-26T13:34:28.816Z,98931.81
2022-11-26T13:37:21.144Z,98930.97
2022-11-26T13:40:10.534Z,98930.97
2022-11-26T13:43:05.026Z,98922.72
2022-11-26T13:45:59.351Z,98925.47
2022-11-26T13:48:38.711Z,98931.81
2022-11-26T13:51:15.380Z,98925.47
2022-11-26T13:53:48.481Z,98930.97
2022-11-26T13:56:23.191Z,98941.19
2022-11-26T13:58:56.980Z,98933.75
2022-11-26T14:01:30.812Z,98934.84
2022-11-26T14:04:01.246Z,98930.97
2022-11-26T14:06:29.892Z,98925.75
2022-11-26T14:08:58.894Z,98929.34
2022-11-26T14:11:56.738Z,98940.38
2022-11-26T14:14:36.262Z,98933.22
2022-11-26T14:17:14.152Z,98935.97
2022-11-26T14:20:01.448Z,98941.47
2022-11-26T14:22:32.240Z,98942.59
2022-11-26T14:25:03.196Z,98938.72
2022-11-26T14:27:33.981Z,98944.53
2022-11-26T14:30:21.123Z,98948.09
2022-11-26T14:32:57.120Z,98943.69
2022-11-26T14:35:34.042Z,98937.91
2022-11-26T14:38:05.131Z,98943.69
2022-11-26T14:40:35.778Z,98944.53
2022-11-26T14:43:09.216Z,98948.09
2022-11-26T14:45:38.102Z,98942.59
2022-11-26T14:48:13.139Z,98950.03
2022-11-26T14:50:44.107Z,98948.09
2022-11-26T14:53:13.361Z,98947.28
2022-11-26T14:55:45.775Z,98943.69
2022-11-26T14:58:19.392Z,98937.06
2022-11-26T15:01:04.354Z,98948.09
2022-11-26T15:03:33.185Z,98948.09
2022-11-26T15:06:03.384Z,98948.09
2022-11-26T15:08:31.884Z,98956.91
2022-11-26T15:11:02.607Z,98953.63
2022-11-26T15:13:34.403Z,98949.75
2022-11-26T15:16:05.108Z,98951.97
2022-11-26T15:18:35.974Z,98955.25
2022-11-26T15:21:06.700Z,98952.22
2022-11-26T15:23:39.952Z,98950.84
2022-11-26T15:26:16.813Z,98956.91
2022-11-26T15:28:45.545Z,98962.16
2022-11-26T15:31:14.060Z,98957.47
2022-11-26T15:33:43.499Z,98954.69
2022-11-26T15:36:17.563Z,98956.34
2022-11-26T15:39:03.959Z,98951.66
2022-11-26T15:41:32.644Z,98963.50
2022-11-26T15:44:01.545Z,98950.25
2022-11-26T15:46:32.545Z,98948.03
2022-11-26T15:49:04.705Z,98946.94
2022-11-26T15:51:38.494Z,98946.94
2022-11-26T15:54:30.882Z,98948.03
2022-11-26T15:57:08.058Z,98944.75
2022-11-26T15:59:43.014Z,98938.66
2022-11-26T16:02:20.515Z,98937.53
2022-11-26T16:04:51.639Z,98938.09
2022-11-26T16:07:24.086Z,98946.34
2022-11-26T16:10:09.735Z,98944.13
2022-11-26T16:12:40.678Z,98945.78
2022-11-26T16:15:20.786Z,98946.31
2022-11-26T16:17:50.651Z,98950.44
2022-11-26T16:20:22.423Z,98950.69
2022-11-26T16:22:54.446Z,98947.91
2022-11-26T16:25:26.073Z,98942.38
2022-11-26T16:28:06.257Z,98938.78
2022-11-26T16:30:34.948Z,98945.13
2022-11-26T16:33:04.266Z,98943.47
2022-11-26T16:35:49.400Z,98942.38
2022-11-26T16:38:23.859Z,98946.03
2022-11-26T16:40:53.382Z,98934.78
2022-11-26T16:43:22.519Z,98942.53
2022-11-26T16:45:55.227Z,98941.44
2022-11-26T16:48:25.577Z,98946.41
2022-11-26T16:50:55.529Z,98941.19
2022-11-26T16:53:25.419Z,98945.88
2022-11-26T16:55:54.873Z,98940.38
2022-11-26T16:58:27.773Z,98946.41
2022-11-26T17:00:57.483Z,98954.13
2022-11-26T17:03:27.886Z,98953.56
2022-11-26T17:05:59.361Z,98951.59
2022-11-26T17:08:29.923Z,98951.84
2022-11-26T17:10:58.732Z,98953.19
2022-11-26T17:13:29.483Z,98949.03
2022-11-26T17:15:58.593Z,98942.94
2022-11-26T17:18:27.256Z,98935.50
2022-11-26T17:20:55.739Z,98935.75
2022-11-26T17:23:24.169Z,98937.69
2022-11-26T17:25:54.786Z,98939.06
2022-11-26T17:28:23.311Z,98937.97
2022-11-26T17:30:51.902Z,98940.16
2022-11-26T17:33:20.490Z,98940.69
2022-11-26T17:35:49.520Z,98943.16
2022-11-26T17:38:20.783Z,98932.13
2022-11-26T17:40:49.725Z,98942.34
2022-11-26T17:43:19.670Z,98945.63
2022-11-26T17:45:48.270Z,98945.63
2022-11-26T17:48:16.883Z,98944.53
2022-11-26T17:50:45.378Z,98936.81
2022-11-26T17:53:14.112Z,98938.75
2022-11-26T17:55:42.659Z,98940.09
2022-11-26T17:58:12.583Z,98946.75
2022-11-26T18:00:42.393Z,98946.19
2022-11-26T18:03:10.910Z,98947.31
2022-11-26T18:05:42.259Z,98947.31
2022-11-26T18:08:10.952Z,98948.44
2022-11-26T18:10:40.932Z,98950.38
2022-11-26T18:13:09.396Z,98950.06
2022-11-26T18:15:37.886Z,98956.41
2022-11-26T18:18:08.417Z,98958.34
2022-11-26T18:20:36.863Z,98957.81
2022-11-26T18:23:05.365Z,98952.88
2022-11-26T18:25:34.762Z,98952.31
2022-11-26T18:28:03.269Z,98955.34
2022-11-26T18:30:31.767Z,98953.16
2022-11-26T18:33:00.235Z,98965.03
2022-11-26T18:35:30.104Z,98969.72
2022-11-26T18:37:58.620Z,98968.91
2022-11-26T18:40:27.559Z,98972.19
2022-11-26T18:42:56.167Z,98959.50
2022-11-26T18:45:24.775Z,98960.34
2022-11-26T18:47:53.259Z,98958.94
2022-11-26T18:50:21.779Z,98961.16
2022-11-26T18:52:51.581Z,98961.16
2022-11-26T18:55:20.120Z,98961.16
2022-11-26T18:57:48.570Z,98957.84
2022-11-26T19:00:17.796Z,98967.25
2022-11-26T19:02:46.328Z,98967.53
2022-11-26T19:05:15.324Z,98968.34
2022-11-26T19:07:43.828Z,98960.09
2022-11-26T19:10:13.927Z,98962.84
2022-11-26T19:12:42.433Z,98961.72
2022-11-26T19:15:12.267Z,98960.63
2022-11-26T19:17:40.801Z,98946.28
2022-11-26T19:20:09.747Z,98955.38
2022-11-26T19:22:38.325Z,98961.72
2022-11-26T19:25:07.560Z,98956.22
2022-11-26T19:27:38.291Z,98951.81
2022-11-26T19:30:09.249Z,98943.53
2022-11-26T19:32:37.794Z,98939.66
2022-11-26T19:35:07.139Z,98931.38
2022-11-26T19:37:35.630Z,98929.44
2022-11-26T19:40:04.556Z,98927.50
2022-11-26T19:42:33.054Z,98920.88
2022-11-26T19:45:02.901Z,98920.31
2022-11-26T19:47:31.450Z,98917.25
2022-11-26T19:49:59.931Z,98907.63
2022-11-26T19:52:28.426Z,98902.63
2022-11-26T19:54:56.880Z,98914.78
2022-11-26T19:57:25.362Z,98912.31
2022-11-26T19:59:53.866Z,98911.75
2022-11-26T20:02:23.731Z,98916.44
2022-11-26T20:04:52.267Z,98910.91
2022-11-26T20:07:20.783Z,98916.44
2022-11-26T20:09:51.776Z,98920.03
2022-11-26T20:12:20.688Z,98912.56
2022-11-26T20:14:49.253Z,98912.56
2022-11-26T20:17:17.770Z,98910.09
2022-11-26T20:19:48.062Z,98915.63
2022-11-26T20:22:16.500Z,98907.63
2022-11-26T20:24:44.919Z,98907.91
2022-11-26T20:27:13.378Z,98918.41
2022-11-26T20:29:41.880Z,98920.34
2022-11-26T20:32:10.369Z,98914.28
2022-11-26T20:34:38.768Z,98920.91
2022-11-26T20:37:08.600Z,98919.28
2022-11-26T20:39:37.261Z,98917.63
2022-11-26T20:42:05.996Z,98912.41
2022-11-26T20:44:34.406Z,98917.09
2022-11-26T20:47:02.812Z,98907.16
2022-11-26T20:49:35.211Z,98908.28
2022-11-26T20:52:05.289Z,98914.63
2022-11-26T20:54:35.340Z,98911.03
2022-11-26T20:57:05.877Z,98901.09
2022-11-26T20:59:34.345Z,98901.41
2022-11-26T21:02:03.257Z,98891.19
2022-11-26T21:04:31.783Z,98890.06
2022-11-26T21:07:00.282Z,98899.75
2022-11-26T21:09:28.761Z,98901.69
2022-11-26T21:11:58.541Z,98896.16
2022-11-26T21:14:27.038Z,98891.75
2022-11-26T21:16:55.553Z,98893.41
2022-11-26T21:19:24.596Z,98889.00
2022-11-26T21:21:53.019Z,98877.16
2022-11-26T21:24:21.735Z,98881.84
2022-11-26T21:26:50.227Z,98890.41
2022-11-26T21:29:20.496Z,98889.56
2022-11-26T21:31:48.977Z,98886.28
2022-11-26T21:34:18.126Z,98890.16
2022-11-26T21:36:46.605Z,98890.16
2022-11-26T21:39:16.688Z,98892.38
2022-11-26T21:41:45.517Z,98897.34
2022-11-26T21:44:13.988Z,98902.31
2022-11-26T21:46:43.804Z,98886.34
2022-11-26T21:49:12.417Z,98888.28
2022-11-26T21:51:40.940Z,98890.22
2022-11-26T21:54:10.356Z,98902.38
2022-11-26T21:56:38.797Z,98894.09
2022-11-26T21:59:07.243Z,98906.22
2022-11-26T22:01:37.841Z,98905.41
2022-11-26T22:04:11.331Z,98909.00
2022-11-26T22:06:40.002Z,98907.38
2022-11-26T22:09:08.986Z,98899.91
2022-11-26T22:11:39.597Z,98907.38
2022-11-26T22:14:09.357Z,98904.63
2022-11-26T22:16:38.249Z,98902.66
2022-11-26T22:19:08.119Z,98913.69
2022-11-26T22:21:38.402Z,98907.38
2022-11-26T22:24:08.669Z,98918.41
2022-11-26T22:26:37.436Z,98918.41
2022-11-26T22:29:06.579Z,98913.16
2022-11-26T22:31:37.267Z,98925.53
2022-11-26T22:34:09.455Z,98918.41
2022-11-26T22:36:39.020Z,98924.72
2022-11-26T22:39:11.704Z,98913.69
2022-11-26T22:41:41.445Z,98904.63
2022-11-26T22:44:10.306Z,98902.66
2022-11-26T22:46:39.175Z,98918.41
2022-11-26T22:49:12.609Z,98916.44
2022-11-26T22:51:41.362Z,98923.91
2022-11-26T22:54:12.819Z,98919.50
2022-11-26T22:56:41.452Z,98914.00
2022-11-26T22:59:13.820Z,98904.06
2022-11-26T23:01:42.355Z,98894.69
2022-11-26T23:04:12.690Z,98899.38
2022-11-26T23:06:41.222Z,98910.41
2022-11-26T23:09:10.756Z,98902.44
2022-11-26T23:11:41.951Z,98909.59
2022-11-26T23:14:11.931Z,98906.00
2022-11-26T23:16:42.254Z,98909.59
2022-11-26T23:19:14.763Z,98909.59
2022-11-26T23:21:44.674Z,98912.63
2022-11-26T23:24:13.827Z,98908.75
2022-11-26T23:26:42.627Z,98905.47
2022-11-26T23:29:11.854Z,98900.78
2022-11-26T23:31:43.584Z,98901.88
2022-11-26T23:34:14.434Z,98896.38
2022-11-26T23:36:42.941Z,98893.63
2022-11-26T23:39:12.960Z,98890.31
2022-11-26T23:41:41.449Z,98891.97
2022-11-26T23:44:09.907Z,98877.34
2022-11-26T23:46:38.483Z,98875.72
2022-11-26T23:49:06.961Z,98873.78
2022-11-26T23:51:36.699Z,98867.44
2022-11-26T23:54:05.282Z,98866.63
2022-11-26T23:56:35.656Z,98855.88
2022-11-26T23:59:05.499Z,98850.06
